Time;durP1;ratioP1;P1;durP2;ratioP2;P2;SDS_P1;SDS_P2;PMS_P1;PMS_P2;Temp;Humidity;BMP_temperature;BMP_pressure;BME280_temperature;BME280_humidity;BME280_pressure;Samples;Min_cycle;Max_cycle;Signal;HPM_P1;HPM_P2
2022/05/11 00:00:07;;;;;;;12.73;7.80;;;;;;;13.69;100.00;98284.34;5069177;28;20141;-77
2022/05/11 00:02:32;;;;;;;11.48;8.18;;;;;;;13.61;100.00;98287.84;5069494;28;20021;-76
2022/05/11 00:04:58;;;;;;;11.18;8.38;;;;;;;13.66;100.00;98295.97;5070549;28;20035;-75
2022/05/11 00:07:24;;;;;;;15.55;8.20;;;;;;;13.66;100.00;98287.72;5069789;28;20090;-75
2022/05/11 00:09:49;;;;;;;13.93;8.40;;;;;;;13.58;100.00;98284.88;5069866;28;20500;-78
2022/05/11 00:12:15;;;;;;;15.23;9.15;;;;;;;13.65;100.00;98291.59;5070037;28;20029;-76
2022/05/11 00:14:40;;;;;;;11.68;7.80;;;;;;;13.58;100.00;98285.69;5069836;28;20252;-77
2022/05/11 00:17:06;;;;;;;13.93;8.15;;;;;;;13.58;100.00;98285.69;5068720;28;20056;-74
2022/05/11 00:19:32;;;;;;;13.48;8.25;;;;;;;13.62;100.00;98297.72;5070002;28;20036;-76
2022/05/11 00:21:58;;;;;;;12.20;7.53;;;;;;;13.57;100.00;98283.25;5072175;28;20032;-75
2022/05/11 00:24:25;;;;;;;13.35;8.50;;;;;;;13.49;100.00;98290.28;5073615;28;20579;-75
2022/05/11 00:26:50;;;;;;;13.15;7.45;;;;;;;13.44;100.00;98278.59;5073539;28;20089;-74
2022/05/11 00:29:16;;;;;;;13.25;7.32;;;;;;;13.45;100.00;98289.25;5073572;28;20470;-76
2022/05/11 00:31:42;;;;;;;11.18;7.78;;;;;;;13.17;100.00;98246.41;5072252;28;20070;-74
2022/05/11 00:34:07;;;;;;;12.07;8.02;;;;;;;13.27;100.00;98277.25;5072037;28;20016;-74
2022/05/11 00:36:32;;;;;;;13.20;8.43;;;;;;;13.24;100.00;98282.56;5073623;28;20080;-74
2022/05/11 00:38:58;;;;;;;13.70;8.73;;;;;;;13.17;100.00;98284.88;5073349;28;20026;-75
2022/05/11 00:41:23;;;;;;;12.75;8.68;;;;;;;13.19;100.00;98286.19;5071987;28;20048;-77
2022/05/11 00:44:01;;;;;;;13.65;8.43;;;;;;;13.16;100.00;98288.72;5073160;28;20107;-75
2022/05/11 00:46:35;;;;;;;13.30;8.23;;;;;;;13.03;100.00;98289.53;5073135;28;20469;-75
2022/05/11 00:51:56;;;;;;;16.60;7.88;;;;;;;12.93;100.00;98284.22;5075226;28;20040;-77
2022/05/11 00:54:23;;;;;;;12.27;7.95;;;;;;;12.77;100.00;98254.28;5072953;28;20020;-77
2022/05/11 00:57:00;;;;;;;14.73;7.88;;;;;;;12.84;100.00;98271.16;5073538;28;20025;-76
2022/05/11 00:59:31;;;;;;;13.20;8.45;;;;;;;12.82;100.00;98276.16;5109227;28;20506;-76
2022/05/11 01:02:02;;;;;;;12.57;8.57;;;;;;;12.78;100.00;98286.09;5077639;28;20035;-79
2022/05/11 01:04:30;;;;;;;11.68;7.95;;;;;;;12.67;100.00;98268.19;5073600;28;20036;-76
2022/05/11 01:06:57;;;;;;;12.02;7.85;;;;;;;12.75;100.00;98275.72;5071533;28;20025;-75
2022/05/11 01:09:22;;;;;;;11.05;8.30;;;;;;;12.66;100.00;98276.72;5072751;28;20052;-75
2022/05/11 01:11:53;;;;;;;11.45;8.50;;;;;;;12.65;100.00;98275.91;5071317;28;20067;-75
2022/05/11 01:14:27;;;;;;;13.15;7.88;;;;;;;12.61;100.00;98263.91;5072428;28;20028;-75
2022/05/11 01:16:54;;;;;;;13.82;7.93;;;;;;;12.58;100.00;98250.78;5071297;28;20035;-79
2022/05/11 01:19:33;;;;;;;10.20;7.65;;;;;;;12.86;100.00;98260.72;5072980;28;20036;-78
2022/05/11 01:22:08;;;;;;;11.32;8.00;;;;;;;12.71;100.00;98266.47;5073154;28;20029;-77
2022/05/11 01:24:41;;;;;;;11.95;7.65;;;;;;;12.79;100.00;98257.53;5071249;28;20016;-77
2022/05/11 01:27:30;;;;;;;12.73;8.30;;;;;;;12.84;100.00;98257.44;5071538;28;20115;-77
2022/05/11 01:30:03;;;;;;;12.60;8.45;;;;;;;12.79;100.00;98246.56;5071112;28;20025;-77
2022/05/11 01:32:30;;;;;;;11.48;7.95;;;;;;;12.75;100.00;98267.47;5072478;28;20495;-78
2022/05/11 01:35:33;;;;;;;15.98;7.43;;;;;;;12.68;100.00;98255.28;5074226;28;20362;-79
2022/05/11 01:38:02;;;;;;;11.25;8.02;;;;;;;12.65;100.00;98264.94;5078270;28;20113;-81
2022/05/11 01:40:27;;;;;;;11.93;8.43;;;;;;;12.52;100.00;98267.63;5076930;28;20102;-77
2022/05/11 01:42:52;;;;;;;17.27;8.25;;;;;;;12.35;100.00;98251.72;5072425;28;20746;-79
2022/05/11 01:45:18;;;;;;;17.08;8.68;;;;;;;12.34;100.00;98261.09;5072062;28;20123;-76
2022/05/11 01:47:43;;;;;;;13.10;8.25;;;;;;;12.35;100.00;98262.69;5071953;28;20809;-76
2022/05/11 01:50:09;;;;;;;12.90;8.93;;;;;;;12.38;100.00;98251.13;5069743;28;20040;-76
2022/05/11 01:52:34;;;;;;;15.25;9.02;;;;;;;12.35;100.00;98254.47;5073374;28;20024;-83
2022/05/11 01:54:59;;;;;;;13.45;9.70;;;;;;;12.29;100.00;98267.44;5070609;28;20409;-77
2022/05/11 01:57:25;;;;;;;13.18;9.52;;;;;;;12.21;100.00;98264.56;5071695;28;20054;-75
2022/05/11 01:59:50;;;;;;;18.10;9.05;;;;;;;12.04;100.00;98229.44;5071929;28;20111;-76
2022/05/11 02:02:16;;;;;;;17.15;9.60;;;;;;;12.15;100.00;98268.50;5070309;28;20118;-75
2022/05/11 02:10:26;;;;;;;13.65;9.07;;;;;;;12.56;100.00;98269.47;5066395;28;20044;-76
2022/05/11 02:12:51;;;;;;;13.88;9.13;;;;;;;12.41;100.00;98275.22;5071489;28;20067;-75
2022/05/11 02:15:19;;;;;;;14.15;9.63;;;;;;;12.34;100.00;98277.53;5071572;28;20461;-76
2022/05/11 02:17:45;;;;;;;15.27;9.43;;;;;;;12.25;100.00;98262.84;5072109;28;20107;-81
2022/05/11 02:20:13;;;;;;;15.05;8.88;;;;;;;12.30;100.00;98274.56;5070144;28;20120;-76
2022/05/11 02:22:40;;;;;;;12.02;8.82;;;;;;;12.24;100.00;98264.81;5071510;28;20381;-77
2022/05/11 02:25:06;;;;;;;19.75;8.75;;;;;;;12.35;100.00;98270.91;5071350;28;20474;-76
2022/05/11 02:27:32;;;;;;;13.18;9.05;;;;;;;12.36;100.00;98258.84;5069888;28;20442;-76
2022/05/11 02:29:58;;;;;;;15.13;9.45;;;;;;;12.14;100.00;98261.38;5070796;28;20097;-76
2022/05/11 02:32:24;;;;;;;10.85;7.78;;;;;;;12.01;100.00;98251.97;5071169;28;20397;-75
2022/05/11 02:37:34;;;;;;;12.45;8.52;;;;;;;12.13;100.00;98265.22;5072165;28;20040;-77
2022/05/11 02:40:00;;;;;;;11.90;8.60;;;;;;;12.14;100.00;98273.19;5071130;28;20016;-76
2022/05/11 02:42:25;;;;;;;14.77;9.05;;;;;;;12.12;100.00;98260.88;5070978;28;20028;-76
2022/05/11 02:44:52;;;;;;;13.45;8.32;;;;;;;11.96;100.00;98243.84;5068770;28;20052;-75
2022/05/11 02:47:18;;;;;;;14.55;8.00;;;;;;;11.98;100.00;98249.00;5070688;28;20033;-76
2022/05/11 02:49:45;;;;;;;15.68;8.20;;;;;;;11.87;100.00;98262.06;5070985;28;20027;-75
2022/05/11 02:52:11;;;;;;;10.30;7.70;;;;;;;11.73;100.00;98253.75;5071188;28;20027;-76
2022/05/11 02:54:36;;;;;;;17.83;8.52;;;;;;;11.82;100.00;98260.22;5070985;28;20028;-75
2022/05/11 02:57:02;;;;;;;13.57;8.80;;;;;;;11.70;100.00;98245.31;5069660;28;20788;-77
2022/05/11 02:59:28;;;;;;;12.93;8.35;;;;;;;11.79;100.00;98260.81;5071126;28;20017;-75
2022/05/11 03:01:54;;;;;;;10.88;8.15;;;;;;;11.75;100.00;98254.28;5070835;28;20032;-76
2022/05/11 03:04:19;;;;;;;14.05;8.07;;;;;;;11.84;100.00;98256.38;5081686;28;20020;-74
2022/05/11 03:06:47;;;;;;;13.10;7.82;;;;;;;11.66;100.00;98223.13;5070904;28;20553;-75
2022/05/11 03:09:17;;;;;;;13.88;8.30;;;;;;;11.89;100.00;98270.81;5079358;28;20040;-76
2022/05/11 03:11:43;;;;;;;14.75;9.65;;;;;;;11.88;100.00;98260.13;5095116;28;20035;-75
2022/05/11 03:14:09;;;;;;;12.20;8.55;;;;;;;11.91;100.00;98265.84;5092790;28;20073;-76
2022/05/11 03:16:38;;;;;;;13.52;9.60;;;;;;;11.92;100.00;98258.44;5090580;28;20028;-76
2022/05/11 03:19:05;;;;;;;14.25;9.02;;;;;;;11.65;100.00;98246.16;5090468;28;20024;-75
2022/05/11 03:21:31;;;;;;;14.60;8.93;;;;;;;11.92;100.00;98269.41;5081755;28;20029;-76
2022/05/11 03:23:56;;;;;;;13.82;9.05;;;;;;;11.86;100.00;98262.34;5070286;28;20043;-76
2022/05/11 03:26:22;;;;;;;17.33;9.25;;;;;;;11.83;100.00;98266.50;5070234;28;20529;-76
2022/05/11 03:28:48;;;;;;;16.92;8.68;;;;;;;11.90;100.00;98266.16;5069050;28;20028;-76
2022/05/11 03:31:15;;;;;;;14.57;8.65;;;;;;;11.96;100.00;98275.91;5070947;28;20020;-76
2022/05/11 03:36:25;;;;;;;13.18;8.75;;;;;;;11.89;100.00;98262.59;5070402;28;20035;-76
2022/05/11 03:38:50;;;;;;;15.05;9.98;;;;;;;11.79;100.00;98258.06;5070096;28;20389;-76
2022/05/11 03:41:16;;;;;;;17.52;9.77;;;;;;;11.85;100.00;98275.25;5070277;28;20043;-75
2022/05/11 03:43:42;;;;;;;14.98;9.52;;;;;;;11.86;100.00;98270.59;5070343;28;20028;-77
2022/05/11 03:46:08;;;;;;;18.42;10.88;;;;;;;11.91;100.00;98273.25;5071383;28;20100;-77
2022/05/11 03:48:34;;;;;;;16.85;9.38;;;;;;;11.95;100.00;98268.81;5072807;28;20048;-76
2022/05/11 03:51:00;;;;;;;14.05;9.45;;;;;;;12.09;100.00;98275.19;5073589;28;20504;-75
2022/05/11 03:53:26;;;;;;;14.25;8.95;;;;;;;12.15;100.00;98260.28;5068641;28;20044;-76
2022/05/11 03:55:52;;;;;;;16.65;9.35;;;;;;;12.19;100.00;98269.53;5071580;28;20033;-76
2022/05/11 03:58:17;;;;;;;16.65;9.70;;;;;;;12.12;100.00;98258.13;5083486;28;20046;-74
2022/05/11 04:00:42;;;;;;;17.73;10.73;;;;;;;12.14;100.00;98258.66;5094130;28;20154;-76
2022/05/11 04:03:08;;;;;;;19.27;10.05;;;;;;;12.27;100.00;98268.88;5093718;28;20425;-76
2022/05/11 04:05:34;;;;;;;16.23;10.13;;;;;;;12.27;100.00;98271.59;5093868;28;20095;-72
2022/05/11 04:07:59;;;;;;;18.30;10.02;;;;;;;12.25;100.00;98279.31;5093830;28;20031;-73
2022/05/11 04:10:28;;;;;;;17.20;9.75;;;;;;;12.30;100.00;98277.31;5094311;28;20031;-73
2022/05/11 04:12:53;;;;;;;20.75;10.20;;;;;;;12.43;100.00;98275.75;5094179;28;20054;-74
2022/05/11 04:15:19;;;;;;;25.30;11.00;;;;;;;12.55;100.00;98272.53;5092568;28;20496;-75
2022/05/11 04:17:45;;;;;;;17.00;10.20;;;;;;;12.64;100.00;98270.72;5093747;28;20020;-75
2022/05/11 04:20:15;;;;;;;19.27;11.48;;;;;;;12.62;100.00;98264.72;5093943;28;20374;-74
2022/05/11 04:22:40;;;;;;;14.50;9.88;;;;;;;12.68;100.00;98279.97;5094705;28;20054;-73
2022/05/11 04:25:07;;;;;;;17.42;11.00;;;;;;;12.83;100.00;98280.53;5094801;28;20024;-73
2022/05/11 04:27:33;;;;;;;19.35;11.07;;;;;;;12.87;100.00;98287.03;5092364;28;20036;-74
2022/05/11 04:30:00;;;;;;;15.82;10.13;;;;;;;12.88;100.00;98294.16;5096232;28;20031;-82
2022/05/11 04:32:26;;;;;;;14.30;9.63;;;;;;;12.95;100.00;98287.47;5098141;28;20056;-83
2022/05/11 04:34:51;;;;;;;16.02;10.52;;;;;;;13.53;100.00;98288.56;5096560;28;20050;-85
2022/05/11 04:37:17;;;;;;;12.45;9.07;;;;;;;14.84;100.00;98298.50;5102236;28;20031;-85
2022/05/11 04:39:42;;;;;;;17.17;8.40;;;;;;;15.35;100.00;98300.69;5097756;28;20061;-86
2022/05/11 04:42:09;;;;;;;14.57;8.82;;;;;;;15.30;100.00;98309.13;5100232;28;20140;-82
2022/05/11 04:44:35;;;;;;;13.15;8.13;;;;;;;15.20;100.00;98303.88;5095311;28;20051;-79
2022/05/11 04:47:12;;;;;;;12.57;8.73;;;;;;;14.74;100.00;98310.56;5093995;28;20032;-78
2022/05/11 04:49:39;;;;;;;14.88;8.80;;;;;;;14.44;100.00;98305.78;5093978;28;20060;-80
2022/05/11 04:52:13;;;;;;;15.85;8.85;;;;;;;14.09;100.00;98309.34;5099693;28;20026;-86
2022/05/11 04:54:42;;;;;;;16.48;9.68;;;;;;;14.10;100.00;98302.72;5100966;28;20122;-79
2022/05/11 04:57:09;;;;;;;12.88;9.20;;;;;;;14.08;100.00;98310.47;5095384;28;20073;-79
2022/05/11 04:59:35;;;;;;;13.55;9.23;;;;;;;14.06;100.00;98312.72;5104438;28;20040;-83
2022/05/11 05:02:02;;;;;;;14.32;9.27;;;;;;;14.30;100.00;98319.59;5100034;28;20035;-89
2022/05/11 05:04:28;;;;;;;12.35;8.98;;;;;;;14.22;100.00;98303.81;5102733;28;20036;-84
2022/05/11 05:06:58;;;;;;;15.55;9.95;;;;;;;14.17;100.00;98309.44;5082574;28;20060;-83
2022/05/11 05:09:24;;;;;;;16.50;9.60;;;;;;;14.40;100.00;98324.06;5102992;28;20032;-85
2022/05/11 05:11:50;;;;;;;14.57;9.88;;;;;;;14.91;100.00;98315.41;5098782;28;20083;-80
2022/05/11 05:14:16;;;;;;;12.32;8.98;;;;;;;15.23;100.00;98314.25;5096144;28;20028;-86
2022/05/11 05:16:42;;;;;;;18.15;9.13;;;;;;;15.67;100.00;98314.16;5098598;28;20400;-87
2022/05/11 05:19:07;;;;;;;15.95;9.10;;;;;;;15.66;100.00;98317.25;5102557;28;20058;-84
2022/05/11 05:21:33;;;;;;;15.32;10.45;;;;;;;15.20;100.00;98320.41;5105616;28;20035;-83
2022/05/11 05:23:59;;;;;;;19.60;10.55;;;;;;;15.18;100.00;98329.00;5095866;28;20056;-77
2022/05/11 05:26:26;;;;;;;15.50;9.07;;;;;;;15.69;100.00;98311.91;5096611;28;20032;-80
2022/05/11 05:31:38;;;;;;;13.75;9.23;;;;;;;15.44;100.00;98312.59;5097630;28;20504;-85
2022/05/11 05:34:04;;;;;;;17.52;9.75;;;;;;;15.34;100.00;98332.16;5094938;28;20047;-77
2022/05/11 05:36:32;;;;;;;12.38;8.90;;;;;;;15.29;100.00;98346.06;5095707;28;20035;-84
2022/05/11 05:38:58;;;;;;;14.60;9.68;;;;;;;15.28;100.00;98319.66;5094713;28;20115;-76
2022/05/11 05:41:27;;;;;;;16.73;10.30;;;;;;;15.57;100.00;98336.50;5093711;28;20047;-84
2022/05/11 05:43:53;;;;;;;14.05;9.25;;;;;;;15.78;100.00;98332.06;5096096;28;20603;-86
2022/05/11 05:46:19;;;;;;;14.50;9.60;;;;;;;15.66;100.00;98339.31;5094826;28;20052;-81
2022/05/11 05:48:45;;;;;;;15.27;9.88;;;;;;;15.91;100.00;98336.63;5094787;28;20031;-85
2022/05/11 05:51:13;;;;;;;15.00;11.07;;;;;;;15.99;100.00;98338.59;5096132;28;20032;-86
2022/05/11 05:53:40;;;;;;;15.10;9.63;;;;;;;16.01;100.00;98330.81;5095588;28;20397;-86
2022/05/11 05:56:06;;;;;;;13.07;8.98;;;;;;;16.40;100.00;98343.72;5098473;28;20030;-88
2022/05/11 05:58:31;;;;;;;16.95;10.70;;;;;;;16.66;100.00;98343.75;5102571;28;20031;-82
2022/05/11 06:00:57;;;;;;;13.30;9.65;;;;;;;16.90;100.00;98335.75;5095886;28;20028;-82
2022/05/11 06:03:25;;;;;;;15.63;9.60;;;;;;;17.04;100.00;98341.13;5094987;28;20357;-79
2022/05/11 06:05:51;;;;;;;15.65;10.77;;;;;;;17.71;95.77;98348.75;5095100;28;20031;-83
2022/05/11 06:08:16;;;;;;;16.92;10.40;;;;;;;17.37;97.39;98344.13;5094937;28;20020;-80
2022/05/11 06:10:44;;;;;;;15.68;9.93;;;;;;;17.03;99.86;98351.34;5093871;28;20031;-78
2022/05/11 06:13:13;;;;;;;17.20;10.77;;;;;;;16.96;100.00;98359.31;5095499;28;20028;-84
2022/05/11 06:15:41;;;;;;;14.55;10.68;;;;;;;16.95;100.00;98354.09;5097133;28;20115;-84
2022/05/11 06:18:08;;;;;;;15.25;10.32;;;;;;;17.00;100.00;98338.19;5095974;28;20108;-81
2022/05/11 06:20:35;;;;;;;16.20;9.85;;;;;;;17.50;97.31;98352.22;5093874;28;20027;-82
2022/05/11 06:23:01;;;;;;;16.45;9.27;;;;;;;17.36;97.15;98343.31;5096430;28;20030;-85
2022/05/11 06:25:27;;;;;;;15.90;10.43;;;;;;;17.52;96.16;98343.56;5093718;28;20023;-81
2022/05/11 06:27:52;;;;;;;17.08;10.15;;;;;;;17.49;95.89;98352.53;5095513;28;20032;-81
2022/05/11 06:30:18;;;;;;;14.48;9.85;;;;;;;17.31;96.48;98342.66;5095147;28;20104;-87
2022/05/11 06:32:43;;;;;;;19.83;10.50;;;;;;;17.46;96.38;98331.06;5098084;28;20526;-85
2022/05/11 06:35:09;;;;;;;19.58;10.75;;;;;;;17.72;95.33;98362.25;5092324;28;20058;-85
2022/05/11 06:37:38;;;;;;;12.15;9.57;;;;;;;17.89;93.57;98355.81;5095063;28;20072;-83
2022/05/11 06:40:04;;;;;;;16.60;9.93;;;;;;;17.76;93.89;98335.53;5096357;28;20016;-83
2022/05/11 06:42:31;;;;;;;13.27;9.88;;;;;;;17.87;94.16;98358.13;5097162;28;20091;-84
2022/05/11 06:44:56;;;;;;;17.02;10.40;;;;;;;17.72;94.00;98344.84;5095879;28;20044;-83
2022/05/11 06:47:22;;;;;;;19.98;9.93;;;;;;;17.83;93.54;98349.66;5098226;28;20031;-82
2022/05/11 06:49:48;;;;;;;14.85;10.00;;;;;;;17.93;92.53;98343.75;5096068;28;20058;-82
2022/05/11 06:52:15;;;;;;;13.82;9.82;;;;;;;18.17;91.57;98357.78;5096948;28;20024;-83
2022/05/11 07:00:09;;;;;;;14.93;9.57;;;;;;;18.52;90.42;98358.41;5096681;28;20038;-78
2022/05/11 07:02:37;;;;;;;14.85;10.13;;;;;;;18.59;88.58;98346.78;5095369;28;20028;-84
2022/05/11 07:05:06;;;;;;;14.38;9.45;;;;;;;18.99;86.22;98350.66;5091817;28;20053;-78
2022/05/11 07:07:32;;;;;;;15.20;9.48;;;;;;;18.85;86.48;98352.94;5102019;28;20557;-82
2022/05/11 07:09:57;;;;;;;16.25;10.27;;;;;;;18.84;86.56;98348.53;5097858;28;20063;-86
2022/05/11 07:12:32;;;;;;;16.30;10.98;;;;;;;19.03;85.64;98334.97;5102027;28;20043;-81
2022/05/11 07:14:59;;;;;;;16.33;10.10;;;;;;;19.00;85.66;98338.44;5090432;28;20028;-77
2022/05/11 07:17:34;;;;;;;21.52;10.18;;;;;;;19.26;84.90;98347.28;5090159;28;20089;-79
2022/05/11 07:20:34;;;;;;;18.65;10.50;;;;;;;19.42;83.66;98346.69;5094270;28;20047;-81
2022/05/11 07:23:01;;;;;;;16.20;9.52;;;;;;;19.56;81.78;98327.72;5089583;28;20063;-86
2022/05/11 07:25:27;;;;;;;14.82;9.63;;;;;;;19.69;81.10;98335.75;5106947;28;20035;-88
2022/05/11 07:27:54;;;;;;;15.23;10.35;;;;;;;19.73;80.97;98330.31;5107091;28;20024;-81
2022/05/11 07:30:27;;;;;;;13.80;9.90;;;;;;;19.55;80.55;98329.69;5101625;28;20032;-83
2022/05/11 07:32:52;;;;;;;14.65;9.02;;;;;;;20.11;77.99;98332.75;5130617;27;20012;-82
2022/05/11 07:35:18;;;;;;;13.80;9.40;;;;;;;20.27;76.61;98325.31;5097676;28;20031;-83
2022/05/11 07:37:48;;;;;;;17.02;9.65;;;;;;;20.52;76.00;98326.91;5100986;28;20503;-81
2022/05/11 07:40:17;;;;;;;14.52;8.98;;;;;;;20.61;75.61;98333.13;5116552;28;20028;-83
2022/05/11 07:42:43;;;;;;;18.50;10.35;;;;;;;20.58;75.15;98330.28;5119422;28;20024;-86
2022/05/11 07:45:11;;;;;;;16.67;8.70;;;;;;;21.00;73.09;98323.16;5121563;28;20051;-80
2022/05/11 07:47:36;;;;;;;12.45;8.98;;;;;;;21.06;73.17;98320.91;5105583;28;20039;-79
2022/05/11 07:50:03;;;;;;;14.07;9.57;;;;;;;21.38;72.10;98319.03;5105010;28;20024;-85
2022/05/11 07:52:28;;;;;;;14.45;9.50;;;;;;;21.45;71.58;98319.25;5113105;28;20039;-84
2022/05/11 07:54:54;;;;;;;12.27;9.27;;;;;;;21.26;72.00;98309.59;5119190;28;20048;-85
2022/05/11 08:00:06;;;;;;;18.73;9.98;;;;;;;23.98;61.49;98321.19;5113342;28;20035;-85
2022/05/11 08:02:37;;;;;;;13.32;8.25;;;;;;;26.46;53.77;98319.34;5114239;28;20048;-83
2022/05/11 08:05:22;;;;;;;14.48;9.35;;;;;;;27.29;50.32;98313.72;5108418;28;20083;-78
2022/05/11 08:07:49;;;;;;;15.55;8.68;;;;;;;28.83;46.58;98317.00;5100520;28;20134;-80
2022/05/11 08:10:18;;;;;;;14.13;9.23;;;;;;;28.75;45.92;98318.25;5104695;28;20027;-82
2022/05/11 08:12:44;;;;;;;13.38;8.77;;;;;;;29.65;42.13;98317.44;5113983;28;20004;-87
2022/05/11 08:15:11;;;;;;;15.52;8.65;;;;;;;29.51;40.85;98309.84;5117903;28;20047;-88
2022/05/11 08:17:37;;;;;;;12.35;8.43;;;;;;;28.66;42.79;98310.19;5113617;28;20015;-84
2022/05/11 08:20:09;;;;;;;12.40;7.40;;;;;;;28.74;42.18;98311.00;5116770;28;20091;-77
2022/05/11 08:22:35;;;;;;;14.95;7.72;;;;;;;29.94;39.28;98309.59;5114979;28;20027;-84
2022/05/11 08:25:00;;;;;;;14.52;8.20;;;;;;;30.54;37.98;98314.72;5124342;28;20032;-82
2022/05/11 08:27:28;;;;;;;14.05;7.82;;;;;;;31.77;35.96;98318.84;5114091;28;20039;-84
2022/05/11 08:35:28;;;;;;;13.27;8.35;;;;;;;31.78;35.18;98308.34;5103187;28;20059;-88
2022/05/11 08:37:55;;;;;;;13.02;7.43;;;;;;;31.04;35.95;98303.69;5116615;28;20024;-81
2022/05/11 08:40:56;;;;;;;11.85;7.35;;;;;;;30.87;36.11;98299.81;5115273;28;20042;-83
2022/05/11 08:43:23;;;;;;;13.35;8.73;;;;;;;32.49;34.09;98307.94;5084109;28;20036;-83
2022/05/11 08:46:16;;;;;;;12.18;6.95;;;;;;;32.93;32.75;98303.09;5111303;28;20082;-83
2022/05/11 08:48:56;;;;;;;14.15;7.47;;;;;;;32.33;33.61;98300.13;5113553;28;20047;-80
2022/05/11 08:51:31;;;;;;;11.38;6.97;;;;;;;31.54;34.58;98287.69;5099807;28;20121;-77
2022/05/11 08:54:15;;;;;;;9.75;6.90;;;;;;;29.06;39.63;98280.69;5113708;28;20100;-83
2022/05/11 08:56:43;;;;;;;17.08;7.60;;;;;;;30.84;36.21;98285.72;5115904;28;20062;-82
2022/05/11 08:59:19;;;;;;;14.20;6.53;;;;;;;32.42;34.21;98295.97;5107332;28;20032;-80
2022/05/11 09:01:57;;;;;;;12.75;7.80;;;;;;;33.87;31.96;98290.91;5096187;28;20028;-80
2022/05/11 09:04:42;;;;;;;10.10;6.50;;;;;;;32.38;33.20;98287.53;5095524;28;20034;-76
2022/05/11 09:07:10;;;;;;;8.90;6.30;;;;;;;32.12;34.08;98288.38;5091935;28;20093;-78
2022/05/11 09:09:35;;;;;;;10.07;6.15;;;;;;;32.76;33.70;98288.84;5092356;28;20043;-77
2022/05/11 09:12:01;;;;;;;8.00;5.95;;;;;;;32.76;32.55;98282.38;5090651;28;20492;-74
2022/05/11 09:14:35;;;;;;;9.35;6.43;;;;;;;32.02;33.44;98278.00;5091344;28;20020;-77
2022/05/11 09:17:01;;;;;;;9.55;6.53;;;;;;;33.45;31.64;98272.81;5096902;28;20051;-80
2022/05/11 09:19:29;;;;;;;9.70;6.50;;;;;;;32.34;32.73;98281.13;5091700;28;20477;-79
2022/05/11 09:22:11;;;;;;;8.68;5.97;;;;;;;32.36;33.52;98275.81;5092598;28;20020;-79
2022/05/11 09:25:38;;;;;;;10.10;5.63;;;;;;;32.94;32.53;98276.34;5102418;28;20121;-79
2022/05/11 09:28:22;;;;;;;7.45;5.53;;;;;;;34.54;29.88;98268.50;5052110;28;20061;-77
2022/05/11 09:31:02;;;;;;;7.82;5.60;;;;;;;33.25;31.11;98260.69;5088036;28;20028;-76
2022/05/11 09:33:30;;;;;;;8.50;5.63;;;;;;;33.47;30.81;98258.19;5090854;28;20048;-76
2022/05/11 09:35:56;;;;;;;7.65;5.05;;;;;;;30.63;34.98;98248.03;5092338;28;20027;-79
2022/05/11 09:38:22;;;;;;;8.20;5.75;;;;;;;31.52;34.19;98250.50;5089109;28;20115;-75
2022/05/11 09:40:53;;;;;;;14.37;6.33;;;;;;;32.65;32.74;98251.41;5096075;28;20052;-77
2022/05/11 09:43:50;;;;;;;11.13;5.53;;;;;;;32.92;32.12;98250.47;5093317;28;20265;-75
2022/05/11 09:46:31;;;;;;;10.77;5.65;;;;;;;34.48;29.90;98256.88;5068296;28;20404;-77
2022/05/11 09:49:16;;;;;;;11.25;5.80;;;;;;;34.81;28.80;98255.56;5088796;28;20039;-78
2022/05/11 09:51:54;;;;;;;7.30;5.43;;;;;;;34.76;28.89;98253.28;5087921;28;20023;-78
2022/05/11 09:54:51;;;;;;;10.60;5.55;;;;;;;36.25;27.08;98251.47;5090815;28;20016;-79
2022/05/11 09:57:23;;;;;;;8.75;5.28;;;;;;;37.31;25.67;98250.47;5088604;28;20023;-77
2022/05/11 09:59:56;;;;;;;7.97;5.30;;;;;;;36.84;25.93;98254.22;5086995;28;20728;-76
2022/05/11 10:02:34;;;;;;;7.53;4.35;;;;;;;37.58;24.85;98247.75;5088008;28;20415;-74
2022/05/11 10:05:26;;;;;;;7.00;4.55;;;;;;;37.66;24.85;98249.06;5089991;28;20026;-75
2022/05/11 10:08:01;;;;;;;6.47;4.72;;;;;;;37.03;24.73;98247.44;5088886;28;20032;-78
2022/05/11 10:10:40;;;;;;;5.18;4.35;;;;;;;36.86;24.99;98230.97;5087184;28;20023;-78
2022/05/11 10:13:20;;;;;;;13.85;4.78;;;;;;;37.05;25.17;98237.63;5088129;28;20059;-76
2022/05/11 10:24:47;;;;;;;8.32;4.80;;;;;;;37.05;25.15;98226.19;5060152;28;20422;-77
2022/05/11 10:27:12;;;;;;;;;;;;;;;37.31;25.09;98221.91;5059154;28;20024;-76
2022/05/11 10:29:56;;;;;;;11.25;4.70;;;;;;;36.54;26.23;98217.06;5066862;28;19919;-78
2022/05/11 10:32:26;;;;;;;8.27;5.30;;;;;;;35.39;26.75;98205.06;5098564;28;20503;-78
2022/05/11 10:34:59;;;;;;;8.93;4.57;;;;;;;35.02;27.27;98196.47;5102157;28;20544;-79
2022/05/11 10:37:29;;;;;;;8.07;4.55;;;;;;;33.79;29.00;98198.63;5100005;28;20032;-79
2022/05/11 10:40:08;;;;;;;7.47;4.35;;;;;;;32.62;31.20;98189.94;5090434;28;20150;-78
2022/05/11 10:42:40;;;;;;;6.50;4.60;;;;;;;32.09;31.40;98178.81;5100015;28;20052;-82
2022/05/11 10:45:17;;;;;;;8.23;4.75;;;;;;;31.55;32.19;98178.13;5085920;28;20039;-73
2022/05/11 10:48:03;;;;;;;9.65;5.35;;;;;;;31.21;33.21;98175.41;5085395;28;20040;-73
2022/05/11 10:50:47;;;;;;;7.75;4.70;;;;;;;29.45;34.67;98164.06;5100328;28;20012;-84
2022/05/11 10:53:41;;;;;;;7.38;4.78;;;;;;;29.21;35.96;98151.75;5095431;28;20043;-75
2022/05/11 10:56:25;;;;;;;8.23;5.03;;;;;;;29.13;36.58;98147.41;5090154;28;20126;-81
2022/05/11 10:59:18;;;;;;;9.45;4.50;;;;;;;29.30;36.88;98152.13;5088217;28;20028;-81
2022/05/11 11:02:18;;;;;;;6.57;4.68;;;;;;;29.59;35.80;98145.03;5087187;28;20149;-79
2022/05/11 11:05:05;;;;;;;7.22;4.13;;;;;;;29.65;35.51;98156.66;5084060;28;20045;-78
2022/05/11 11:07:45;;;;;;;8.90;4.18;;;;;;;29.93;34.55;98147.94;5085705;28;20157;-75
2022/05/11 11:10:16;;;;;;;10.40;5.00;;;;;;;29.70;34.08;98142.09;5084805;28;20020;-76
2022/05/11 11:13:06;;;;;;;10.40;4.45;;;;;;;29.38;34.26;98133.94;5085816;28;20027;-78
2022/05/11 11:15:37;;;;;;;7.18;4.05;;;;;;;28.98;35.42;98140.22;5088508;28;20031;-81
2022/05/11 11:18:04;;;;;;;12.65;5.18;;;;;;;28.75;35.60;98137.19;5095839;28;20072;-79
2022/05/11 11:20:36;;;;;;;9.00;4.70;;;;;;;28.62;35.96;98134.81;5093213;28;20070;-80
2022/05/11 11:23:04;;;;;;;7.25;3.92;;;;;;;28.69;34.58;98134.00;5097864;28;20048;-84
2022/05/11 11:25:51;;;;;;;5.07;3.67;;;;;;;28.92;33.89;98127.78;5093546;28;20028;-79
2022/05/11 11:28:19;;;;;;;7.82;4.50;;;;;;;29.57;32.86;98121.28;5085430;28;20036;-78
2022/05/11 11:31:12;;;;;;;9.23;4.47;;;;;;;29.77;32.68;98125.09;5085428;28;20140;-73
2022/05/11 11:33:56;;;;;;;8.70;4.43;;;;;;;29.92;33.36;98120.13;5078103;28;20044;-76
2022/05/11 11:36:26;;;;;;;7.93;4.35;;;;;;;29.40;32.97;98117.41;5087981;28;20697;-78
2022/05/11 11:38:53;;;;;;;11.50;4.35;;;;;;;28.87;33.52;98122.59;5090063;28;20642;-73
2022/05/11 11:41:28;;;;;;;8.35;4.50;;;;;;;28.68;33.77;98115.47;5087867;28;20024;-82
2022/05/11 11:43:59;;;;;;;;;;;;;;;29.20;33.54;98119.94;5092451;28;20035;-79
2022/05/11 11:46:41;;;;;;;10.93;5.15;;;;;;;29.21;33.66;98103.84;5086680;28;19927;-82
2022/05/11 11:49:30;;;;;;;10.35;4.38;;;;;;;29.46;34.73;98110.09;5089040;28;20091;-84
2022/05/11 11:52:02;;;;;;;11.25;4.40;;;;;;;29.16;34.85;98118.38;5088228;28;20035;-82
2022/05/11 11:54:36;;;;;;;8.32;4.53;;;;;;;29.18;34.04;98104.66;5091180;28;20020;-73
2022/05/11 11:57:25;;;;;;;10.65;4.60;;;;;;;28.72;34.94;98099.38;5083077;28;20039;-71
2022/05/11 11:59:58;;;;;;;6.43;4.18;;;;;;;28.90;34.87;98100.06;5076801;28;20438;-71
2022/05/11 12:02:28;;;;;;;8.07;5.13;;;;;;;28.57;35.57;98097.81;5086142;28;20551;-73
2022/05/11 12:04:59;;;;;;;7.90;3.80;;;;;;;28.37;35.75;98097.53;5086582;28;20024;-72
2022/05/11 12:16:08;;;;;;;7.37;3.80;;;;;;;28.63;35.34;98082.88;5086773;28;20042;-71
2022/05/11 12:18:40;;;;;;;12.00;4.00;;;;;;;28.23;35.53;98077.06;5092394;28;20081;-74
2022/05/11 12:21:10;;;;;;;7.38;4.07;;;;;;;28.59;35.47;98078.50;5089203;28;20027;-74
2022/05/11 12:23:38;;;;;;;9.23;4.63;;;;;;;28.51;33.75;98083.34;5090298;28;20051;-75